Metar Cercanos

 

LEPA - Palma De Mallorc, Spain
Distance from station: ONO 38km
Actualización: Mon, 19-Apr-2021 8:30pm CEST
Few Clouds
Few Clouds
 Viento del SSO
Viento: SSO 7 km/h
Temperatura: 16°C
Rocío: 12°C
Humedad: 77%
Barómetro: 1016 hPa
Clouds: Few Clouds
Visibility: 10 km
Cloud details: Few Clouds 762 m
2021/04/19 18:30 LEPA 191830Z 21004KT 9999 FEW025 16/12 Q1016 NOSIG
LEMH - Mahon/Menorca Is, Spain
Distance from station: ENE 105km
Actualización: Mon, 19-Apr-2021 8:30pm CEST
Few Clouds
Few Clouds
 Viento del SSO
Viento: SSO 9 km/h
Temperatura: 13°C
Rocío: 9°C
Humedad: 77%
Barómetro: 1017 hPa
Clouds: Few Clouds
Visibility: 10 km
Cloud details: Few Clouds 1067 m
2021/04/19 18:30 LEMH 191830Z 20005KT 9999 FEW035 13/09 Q1017
 
LEIB - Ibiza/Es Codola, Spain
Distance from station: OSO 165km
Actualización: Mon, 19-Apr-2021 8:30pm CEST
Despejado
Despejado
 Viento del SSE
Viento: SSE 7 km/h
Temperatura: 16°C
Rocío: 12°C
Humedad: 77%
Barómetro: 1015 hPa
Resumen: Despejado
Visibility: greater than 10 km
2021/04/19 18:30 LEIB 191830Z 16004KT 120V240 CAVOK 16/12 Q1015 NOSIG
LEBL - Barcelona Airpor, Spain
Distance from station: NNO 225km
Actualización: Mon, 19-Apr-2021 8:30pm CEST
Parcialmente nuboso
Parcialmente nuboso
 Viento del ENE
Viento: ENE 17 km/h
Temperatura: 14°C
Rocío: 11°C
Humedad: 82%
Barómetro: 1016 hPa
Clouds: Parcialmente nuboso
Visibility: 10 km
Cloud details: Parcialmente nuboso 610 m
2021/04/19 18:30 LEBL 191830Z 07009KT 9999 SCT020 14/11 Q1016 NOSIG
 
LEVC - Valencia (civ/Mi, Spain
Distance from station: NO 188km
Actualización: Mon, 19-Apr-2021 8:30pm CEST
Despejado
Despejado
 Viento del NE
Viento: NE 11 km/h
Temperatura: 18°C
Rocío: 4°C
Humedad: 40%
Barómetro: 1014 hPa
Resumen: Despejado
Visibility: greater than 10 km
2021/04/19 18:30 LEVC 191830Z 04006KT CAVOK 18/04 Q1014 NOSIG
LEGE - Gerona/Costa Bra, Spain
Distance from station: N 276km
Actualización: Mon, 19-Apr-2021 8:30pm CEST
Parcialmente nuboso
Parcialmente nuboso
 Viento del SSO
Viento: SSO 11 km/h
Temperatura: 11°C
Rocío: 7°C
Humedad: 77%
Barómetro: 1016 hPa
Clouds: Parcialmente nuboso
Visibility: 10 km
Cloud details: Parcialmente nuboso 2134 m
2021/04/19 18:30 LEGE 191830Z 21006KT 9999 SCT070 11/07 Q1016
 
LEAL - Alicante/El Alte, Spain
Distance from station: OSO 344km
Actualización: Mon, 19-Apr-2021 8:30pm CEST
Despejado
Despejado
 Viento del SSO
Viento: SSO 7 km/h
Temperatura: 18°C
Rocío: 10°C
Humedad: 60%
Barómetro: 1014 hPa
Resumen: Despejado
Visibility: greater than 10 km
2021/04/19 18:30 LEAL 191830Z 21004KT 170V240 CAVOK 18/10 Q1014 NOSIG
LEAM - Almeria Airport, Spain
Distance from station: SSO 56km
Actualización: Mon, 19-Apr-2021 8:30pm CEST
Despejado
Despejado
 Viento del SO
Viento: SO 13 km/h
Temperatura: 17°C
Rocío: 13°C
Humedad: 77%
Barómetro: 1015 hPa
Resumen: Despejado
Visibility: greater than 10 km
2021/04/19 18:30 LEAM 191830Z 22007KT 190V270 CAVOK 17/13 Q1015
 
LEZG - Zaragoza (mil/Ci, Spain
Distance from station: NO 431km
Actualización: Mon, 19-Apr-2021 8:30pm CEST
Few Clouds
Few Clouds
 Viento del OSO
Viento: OSO 9 km/h
Temperatura: 19°C
Rocío: 1°C
Humedad: 30%
Barómetro: 1013 hPa
Clouds: Few Clouds
Visibility: 10 km
Cloud details: Few Clouds 2591 m
2021/04/19 18:30 LEZG 191830Z 24005KT 9999 FEW085 19/01 Q1013
LEMD - Madrid/Barajas, Spain
Distance from station: ONO 234km
Actualización: Mon, 19-Apr-2021 8:30pm CEST
Few Clouds
Few Clouds
 Viento del O
Viento: O 17 km/h
Temperatura: 17°C
Rocío: 6°C
Humedad: 49%
Barómetro: 1015 hPa
Clouds: Few Clouds
Visibility: 10 km
Cloud details: Few Clouds 2438 m
2021/04/19 18:30 LEMD 191830Z 28009KT 9999 FEW080 17/06 Q1015 NOSIG
 
LEGR - Granada Airport, Spain
Distance from station: OSO 62km
Actualización: Mon, 19-Apr-2021 8:30pm CEST
Few Clouds
Few Clouds
 Viento del O
Viento: O 9 km/h
Temperatura: 19°C
Rocío: 6°C
Humedad: 43%
Barómetro: 1016 hPa
Clouds: Few Clouds
Visibility: 10 km
Cloud details: Few Clouds 2438 m
2021/04/19 18:30 LEGR 191830Z 28005KT 9999 FEW080 19/06 Q1016
LEMG - Malaga (civ/Mil), Spain
Distance from station: OSO 227km
Actualización: Mon, 19-Apr-2021 8:30pm CEST
Few Clouds
Few Clouds
 Viento del E
Viento: E 13 km/h
Temperatura: 17°C
Rocío: 14°C
Humedad: 83%
Barómetro: 1016 hPa
Clouds: Few Clouds
Visibility: 10 km
Cloud details: Few Clouds 1829 m
2021/04/19 18:30 LEMG 191830Z 08007KT 9999 FEW060 17/14 Q1016 NOSIG
 
LEZL - Sevilla (civ/Mil, Spain
Distance from station: S 318km
Actualización: Mon, 19-Apr-2021 8:30pm CEST
Despejado
Despejado
 Viento del OSO
Viento: OSO 17 km/h
Temperatura: 22°C
Rocío: 9°C
Humedad: 44%
Barómetro: 1016 hPa
Resumen: Despejado
Visibility: greater than 10 km
2021/04/19 18:30 LEZL 191830Z 24009KT 200V260 CAVOK 22/09 Q1016 NOSIG
LEVT - Vitoria, Spain
Distance from station: NO 226km
Actualización: Mon, 19-Apr-2021 8:30pm CEST
Light drizzle, Muy nuboso
Light drizzle, Muy nuboso
 Viento del NE
Viento: NE 9 km/h
Temperatura: 13°C
Rocío: 0°C
Humedad: 41%
Barómetro: 1016 hPa
Resumen: Light Drizzle
Clouds: Muy nuboso
Visibility: 10 km
Cloud details: Few Clouds 762 m
Muy nuboso 1829 m
2021/04/19 18:30 LEVT 191830Z 04005KT 9999 -DZ FEW025 BKN060 13/00 Q1016
 
LEBB - Bilbao/Sondica, Spain
Distance from station: NNO 235km
Actualización: Mon, 19-Apr-2021 8:30pm CEST
Few Clouds
Few Clouds
 Viento del ONO
Viento: ONO 13 km/h
Temperatura: 13°C
Rocío: 8°C
Humedad: 72%
Barómetro: 1017 hPa
Clouds: Few Clouds
Visibility: 10 km
Cloud details: Few Clouds 1829 m
2021/04/19 18:30 LEBB 191830Z 29007KT 260V320 9999 FEW060 13/08 Q1017 NOSIG
LESO - San Sebastian/Fu, Spain
Distance from station: N 231km
Actualización: Mon, 19-Apr-2021 8:30pm CEST
Despejado
Despejado
 Viento del varies
Viento: varies 2 km/h
Temperatura: 14°C
Rocío: 9°C
Humedad: 72%
Barómetro: 1016 hPa
Resumen: Despejado
Visibility: greater than 10 km
2021/04/19 18:30 LESO 191830Z VRB01KT CAVOK 14/09 Q1016
 
LEVD - Valladolid(Mil/C, Spain
Distance from station: ONO 239km
Actualización: Mon, 19-Apr-2021 8:30pm CEST
Few Clouds
Few Clouds
 Viento del SO
Viento: SO 4 km/h
Temperatura: 12°C
Rocío: 8°C
Humedad: 77%
Barómetro: 1016 hPa
Clouds: Few Clouds
Visibility: 10 km
Cloud details: Few Clouds 1372 m
2021/04/19 18:30 LEVD 191830Z 23002KT 9999 FEW045 12/08 Q1016
LESA - Salamanca (civ/M, Spain
Distance from station: ONO 349km
Actualización: Mon, 19-Apr-2021 8:30pm CEST
Despejado
Despejado
 Viento del calm
Viento: Calma
Temperatura: 16°C
Rocío: 7°C
Humedad: 55%
Barómetro: 1016 hPa
Resumen: Despejado
Visibility: greater than 10 km
2021/04/19 18:30 LESA 191830Z 00000KT CAVOK 16/07 Q1016 WS R03
 
LEXJ - Santander/Paraya, Spain
Distance from station: NNO 247km
Actualización: Mon, 19-Apr-2021 8:30pm CEST
Parcialmente nuboso
Parcialmente nuboso
 Viento del varies
Viento: varies 4 km/h
Temperatura: 14°C
Rocío: 11°C
Humedad: 82%
Barómetro: 1017 hPa
Clouds: Parcialmente nuboso
Visibility: 10 km
Cloud details: Parcialmente nuboso 2621 m
2021/04/19 18:30 LEXJ 191830Z VRB02KT 9999 SCT086 14/11 Q1017
LEAS - Asturias/Aviles, Spain
Distance from station: NO 214km
Actualización: Mon, 19-Apr-2021 8:30pm CEST
Few Clouds
Few Clouds
 Viento del NO
Viento: NO 11 km/h
Temperatura: 13°C
Rocío: 9°C
Humedad: 77%
Barómetro: 1017 hPa
Clouds: Few Clouds
Visibility: 10 km
Cloud details: Few Clouds 1280 m
2021/04/19 18:30 LEAS 191830Z 31006KT 280V340 9999 FEW042 13/09 Q1017 NOSIG
 
LECO - La Coruna/Alvedr, Spain
Distance from station: ONO 222km
Actualización: Mon, 19-Apr-2021 8:30pm CEST
Few Clouds
Few Clouds
 Viento del N
Viento: N 7 km/h
Temperatura: 14°C
Rocío: 9°C
Humedad: 72%
Barómetro: 1017 hPa
Clouds: Few Clouds
Visibility: 10 km
Cloud details: Few Clouds 610 m
2021/04/19 18:30 LECO 191830Z 01004KT 320V060 9999 FEW020 14/09 Q1017 NOSIG
LEVX - Vigo/Peinador, Spain
Distance from station: O 214km
Actualización: Mon, 19-Apr-2021 8:30pm CEST
Muy nuboso
Muy nuboso
 Viento del O
Viento: O 6 km/h
Temperatura: 14°C
Rocío: 7°C
Humedad: 63%
Barómetro: 1018 hPa
Clouds: Muy nuboso
Visibility: 10 km
Cloud details: Muy nuboso 1128 m
2021/04/19 18:30 LEVX 191830Z 27003KT 210V330 9999 BKN037 14/07 Q1018 NOSIG